Time;durP1;ratioP1;P1;durP2;ratioP2;P2;SDS_P1;SDS_P2;PMS_P1;PMS_P2;Temp;Humidity;BMP_temperature;BMP_pressure;BME280_temperature;BME280_humidity;BME280_pressure;Samples;Min_cycle;Max_cycle;Signal;HPM_P1;HPM_P2
2021/07/31 00:02:11;;;;;;;11.70;2.30;;;16.30;99.90;;;;;;5080945;28;20036;-68
2021/07/31 00:04:37;;;;;;;6.80;2.58;;;16.30;99.90;;;;;;5078282;28;20119;-68
2021/07/31 00:07:02;;;;;;;11.02;2.10;;;16.30;99.90;;;;;;5079514;28;20117;-68
2021/07/31 00:09:28;;;;;;;9.57;1.88;;;16.20;99.90;;;;;;5079439;28;20036;-68
2021/07/31 00:11:54;;;;;;;12.13;2.55;;;16.30;99.90;;;;;;5076695;28;20063;-69
2021/07/31 00:14:19;;;;;;;9.27;2.00;;;16.30;99.90;;;;;;5080352;28;20044;-68
2021/07/31 00:16:45;;;;;;;9.43;1.85;;;16.30;99.90;;;;;;5077641;28;20060;-69
2021/07/31 00:19:10;;;;;;;9.00;2.05;;;16.40;99.90;;;;;;5080473;28;20183;-68
2021/07/31 00:21:36;;;;;;;6.68;1.90;;;16.50;99.90;;;;;;5078316;28;20048;-68
2021/07/31 00:24:01;;;;;;;13.80;2.28;;;16.50;99.90;;;;;;5078939;28;20044;-69
2021/07/31 00:26:27;;;;;;;8.00;2.25;;;16.50;99.90;;;;;;5079170;28;20039;-68
2021/07/31 00:28:53;;;;;;;8.85;2.40;;;16.50;99.90;;;;;;5060112;28;20029;-69
2021/07/31 00:31:18;;;;;;;9.32;2.10;;;16.50;99.90;;;;;;5080654;28;20484;-68
2021/07/31 00:33:44;;;;;;;7.13;2.30;;;16.40;99.90;;;;;;5076098;28;20040;-68
2021/07/31 00:36:09;;;;;;;8.30;2.75;;;16.30;99.90;;;;;;5080518;28;20562;-68
2021/07/31 00:38:35;;;;;;;7.95;2.38;;;16.30;99.90;;;;;;5076801;28;20067;-69
2021/07/31 00:41:01;;;;;;;8.52;2.22;;;16.30;99.90;;;;;;5078350;28;20113;-68
2021/07/31 00:43:26;;;;;;;5.40;2.53;;;16.20;99.90;;;;;;5079590;28;20038;-68
2021/07/31 00:45:52;;;;;;;12.40;2.90;;;16.30;99.90;;;;;;5080253;28;20740;-68
2021/07/31 00:48:17;;;;;;;8.75;2.00;;;16.30;99.90;;;;;;5077491;28;20054;-68
2021/07/31 00:50:43;;;;;;;10.27;2.47;;;16.30;99.90;;;;;;5083154;28;20036;-69
2021/07/31 00:53:09;;;;;;;11.50;1.83;;;16.30;99.90;;;;;;5058914;28;20097;-68
2021/07/31 00:55:36;;;;;;;12.57;2.10;;;16.30;99.90;;;;;;5085679;28;20082;-68
2021/07/31 00:58:02;;;;;;;9.55;1.90;;;16.30;99.90;;;;;;5084126;28;20627;-69
2021/07/31 01:00:28;;;;;;;15.73;3.60;;;16.30;99.90;;;;;;5083801;28;20107;-68
2021/07/31 01:02:53;;;;;;;7.25;2.13;;;16.30;99.90;;;;;;5083917;28;20039;-69
2021/07/31 01:05:19;;;;;;;8.90;2.45;;;16.30;99.90;;;;;;5084253;28;20031;-69
2021/07/31 01:07:45;;;;;;;8.70;2.10;;;16.30;99.90;;;;;;5082268;28;20032;-69
2021/07/31 01:10:12;;;;;;;6.60;1.67;;;16.40;99.90;;;;;;5084821;28;20043;-69
2021/07/31 01:12:39;;;;;;;8.27;2.00;;;16.40;99.90;;;;;;5082194;28;20488;-69
2021/07/31 01:15:05;;;;;;;6.45;1.83;;;16.50;99.90;;;;;;5084652;28;20073;-69
2021/07/31 01:17:31;;;;;;;7.78;2.35;;;16.40;99.90;;;;;;5083172;28;20027;-69
2021/07/31 01:19:56;;;;;;;10.05;1.95;;;16.50;99.90;;;;;;5066292;28;20119;-69
2021/07/31 01:22:22;;;;;;;8.32;2.10;;;16.40;99.90;;;;;;5085821;28;20040;-70
2021/07/31 01:24:48;;;;;;;6.03;2.08;;;16.30;99.90;;;;;;5086690;28;20093;-70
2021/07/31 01:27:13;;;;;;;9.00;2.80;;;16.10;99.90;;;;;;5073759;28;20032;-70
2021/07/31 01:29:39;;;;;;;13.80;2.80;;;16.10;99.90;;;;;;5092384;28;20066;-70
2021/07/31 01:32:05;;;;;;;12.63;2.85;;;16.00;99.90;;;;;;5097828;28;20129;-71
2021/07/31 01:34:30;;;;;;;9.95;2.38;;;15.80;99.90;;;;;;5083764;28;20032;-70
2021/07/31 01:36:56;;;;;;;9.18;1.90;;;15.80;99.90;;;;;;5064483;28;20032;-70
2021/07/31 01:39:22;;;;;;;10.07;2.83;;;15.70;99.90;;;;;;5081326;28;20139;-70
2021/07/31 01:41:47;;;;;;;9.35;2.05;;;15.70;99.90;;;;;;5083138;28;20058;-70
2021/07/31 01:44:13;;;;;;;7.47;2.38;;;15.70;99.90;;;;;;5079019;28;20108;-70
2021/07/31 01:46:39;;;;;;;10.90;2.17;;;15.70;99.90;;;;;;5082684;28;20392;-70
2021/07/31 01:49:05;;;;;;;9.20;2.45;;;15.70;99.90;;;;;;5082721;28;20392;-70
2021/07/31 01:51:30;;;;;;;5.57;2.33;;;15.60;99.90;;;;;;5082283;28;20028;-70
2021/07/31 01:53:58;;;;;;;8.27;3.05;;;15.70;99.90;;;;;;5082208;28;20040;-70
2021/07/31 01:56:24;;;;;;;8.45;2.42;;;15.60;99.90;;;;;;5075882;28;20051;-69
2021/07/31 01:58:49;;;;;;;8.35;2.10;;;15.70;99.90;;;;;;5074479;28;20036;-69
2021/07/31 02:01:15;;;;;;;12.32;2.95;;;15.70;99.90;;;;;;5077529;28;20028;-69
2021/07/31 02:03:40;;;;;;;12.40;2.63;;;15.60;99.90;;;;;;5081503;28;20480;-70
2021/07/31 02:06:06;;;;;;;7.55;2.45;;;15.60;99.90;;;;;;5077216;28;20124;-70
2021/07/31 02:08:31;;;;;;;7.35;2.83;;;15.60;99.90;;;;;;5080655;28;20063;-71
2021/07/31 02:10:57;;;;;;;10.00;2.40;;;15.50;99.90;;;;;;5079661;28;20040;-70
2021/07/31 02:13:22;;;;;;;8.52;2.40;;;15.50;99.90;;;;;;5079820;28;20056;-70
2021/07/31 02:15:48;;;;;;;5.07;2.13;;;15.50;99.90;;;;;;5080339;28;20102;-70
2021/07/31 02:18:14;;;;;;;7.05;2.13;;;15.50;99.90;;;;;;5062533;28;20507;-70
2021/07/31 02:20:40;;;;;;;8.38;2.75;;;15.40;99.90;;;;;;5077880;28;20519;-70
2021/07/31 02:23:06;;;;;;;5.63;1.80;;;15.40;99.90;;;;;;5081174;28;20032;-71
2021/07/31 02:25:32;;;;;;;9.43;2.70;;;15.40;99.90;;;;;;5059498;28;20543;-70
2021/07/31 02:27:58;;;;;;;8.38;2.15;;;15.40;99.90;;;;;;5080393;28;20032;-70
2021/07/31 02:30:24;;;;;;;5.32;2.00;;;15.40;99.90;;;;;;5077179;28;20036;-71
2021/07/31 02:32:50;;;;;;;8.27;2.35;;;15.40;99.90;;;;;;5063099;28;20404;-70
2021/07/31 02:35:16;;;;;;;8.32;2.28;;;15.30;99.90;;;;;;5080453;28;20028;-70
2021/07/31 02:37:41;;;;;;;6.93;2.05;;;15.30;99.90;;;;;;5077512;28;20040;-70
2021/07/31 02:40:07;;;;;;;8.77;1.83;;;15.30;99.90;;;;;;5080201;28;20045;-70
2021/07/31 02:42:33;;;;;;;8.07;2.10;;;15.40;99.90;;;;;;5044273;28;1063943;-71
2021/07/31 02:45:00;;;;;;;11.45;2.80;;;15.40;99.90;;;;;;5079484;28;20035;-71
2021/07/31 02:47:25;;;;;;;7.07;2.50;;;15.40;99.90;;;;;;5062447;28;20088;-72
2021/07/31 02:49:51;;;;;;;9.82;2.20;;;15.40;99.90;;;;;;5080491;28;20133;-70
2021/07/31 02:52:17;;;;;;;3.88;2.30;;;15.40;99.90;;;;;;5079095;28;20071;-70
2021/07/31 02:54:42;;;;;;;9.77;2.72;;;15.40;99.90;;;;;;5060529;28;20031;-72
2021/07/31 02:57:08;;;;;;;8.43;2.17;;;15.40;99.90;;;;;;5082189;28;20648;-71
2021/07/31 02:59:33;;;;;;;9.10;2.13;;;15.30;99.90;;;;;;5077344;28;20044;-71
2021/07/31 03:01:59;;;;;;;9.65;2.17;;;15.40;99.90;;;;;;5062505;28;20060;-71
2021/07/31 03:04:24;;;;;;;6.57;2.58;;;15.40;99.90;;;;;;5079083;28;20408;-71
2021/07/31 03:06:50;;;;;;;12.38;2.33;;;15.30;99.90;;;;;;5080193;28;20246;-71
2021/07/31 03:09:15;;;;;;;11.45;2.40;;;15.40;99.90;;;;;;5078166;28;20041;-71
2021/07/31 03:11:41;;;;;;;13.45;3.30;;;15.40;99.90;;;;;;5063091;28;20500;-71
2021/07/31 03:14:07;;;;;;;8.07;1.92;;;15.40;99.90;;;;;;5082248;28;20043;-72
2021/07/31 03:16:33;;;;;;;14.93;3.17;;;15.40;99.90;;;;;;5077971;28;20039;-72
2021/07/31 03:18:58;;;;;;;11.88;3.13;;;15.40;99.90;;;;;;5081855;28;20047;-71
2021/07/31 03:21:24;;;;;;;13.32;3.13;;;15.30;99.90;;;;;;5082009;28;20063;-71
2021/07/31 03:23:49;;;;;;;10.60;2.90;;;15.30;99.90;;;;;;5079027;28;20420;-71
2021/07/31 03:26:15;;;;;;;11.32;2.90;;;15.40;99.90;;;;;;5078134;28;20036;-71
2021/07/31 03:28:40;;;;;;;10.93;2.83;;;15.40;99.90;;;;;;5080162;28;20036;-71
2021/07/31 03:31:06;;;;;;;9.25;2.47;;;15.40;99.90;;;;;;5076561;28;20044;-71
2021/07/31 03:33:32;;;;;;;9.93;2.53;;;15.40;99.90;;;;;;5063070;28;20119;-70
2021/07/31 03:35:57;;;;;;;13.27;2.60;;;15.40;99.90;;;;;;5077752;28;20033;-70
2021/07/31 03:38:23;;;;;;;12.48;2.72;;;15.40;99.90;;;;;;5062174;28;20036;-71
2021/07/31 03:40:49;;;;;;;16.75;3.33;;;15.50;99.90;;;;;;5079015;28;20051;-72
2021/07/31 03:43:15;;;;;;;7.93;2.88;;;15.40;99.90;;;;;;5081992;28;20036;-71
2021/07/31 03:45:41;;;;;;;7.80;2.50;;;15.40;99.90;;;;;;5078097;28;20033;-70
2021/07/31 03:48:07;;;;;;;9.45;2.60;;;15.30;99.90;;;;;;5080774;28;20388;-71
2021/07/31 03:50:37;;;;;;;12.85;3.00;;;15.30;99.90;;;;;;5059246;28;20028;-71
2021/07/31 03:53:04;;;;;;;9.32;2.50;;;15.30;99.90;;;;;;5074468;28;20037;-70
2021/07/31 03:55:29;;;;;;;8.75;2.83;;;15.30;99.90;;;;;;5081657;28;20088;-71
2021/07/31 03:57:55;;;;;;;5.63;2.90;;;15.30;99.90;;;;;;5059386;28;20029;-70
2021/07/31 04:00:20;;;;;;;15.02;3.30;;;15.30;99.90;;;;;;5080153;28;20036;-71
2021/07/31 04:02:46;;;;;;;8.20;3.13;;;15.40;99.90;;;;;;5059992;28;20039;-70
2021/07/31 04:05:11;;;;;;;9.70;3.30;;;15.30;99.90;;;;;;5078768;28;20032;-70
2021/07/31 04:07:37;;;;;;;13.35;3.10;;;15.30;99.90;;;;;;5062554;28;20028;-71
2021/07/31 04:10:03;;;;;;;11.88;3.50;;;15.40;99.90;;;;;;5076497;28;20039;-70
2021/07/31 04:12:28;;;;;;;10.85;2.50;;;15.40;99.90;;;;;;5061997;28;20144;-69
2021/07/31 04:14:54;;;;;;;9.15;2.45;;;15.40;99.90;;;;;;5077388;28;20043;-70
2021/07/31 04:17:20;;;;;;;6.18;2.30;;;15.30;99.90;;;;;;5061310;28;20021;-70
2021/07/31 04:19:45;;;;;;;10.07;1.95;;;15.40;99.90;;;;;;5060266;28;20072;-71
2021/07/31 04:22:11;;;;;;;7.35;2.67;;;15.30;99.90;;;;;;5060038;28;20020;-71
2021/07/31 04:24:37;;;;;;;9.27;2.30;;;15.30;99.90;;;;;;5080727;28;20023;-70
2021/07/31 04:27:04;;;;;;;6.97;2.10;;;15.30;99.90;;;;;;5061752;28;20118;-71
2021/07/31 04:29:29;;;;;;;6.40;2.20;;;15.30;99.90;;;;;;5059439;28;20028;-70
2021/07/31 04:31:55;;;;;;;8.32;2.40;;;15.30;99.90;;;;;;5079931;28;20131;-70
2021/07/31 04:34:21;;;;;;;8.75;2.60;;;15.30;99.90;;;;;;5077641;28;20060;-70
2021/07/31 04:36:46;;;;;;;7.63;2.50;;;15.20;99.90;;;;;;5080719;28;20138;-71
2021/07/31 04:39:12;;;;;;;15.80;3.58;;;15.30;99.90;;;;;;5060013;28;20048;-70
2021/07/31 04:41:37;;;;;;;11.18;2.45;;;15.30;99.90;;;;;;5061013;28;20122;-69
2021/07/31 04:44:03;;;;;;;7.32;2.28;;;15.20;99.90;;;;;;5076309;28;20047;-70
2021/07/31 04:46:29;;;;;;;7.35;2.47;;;15.10;99.90;;;;;;5079848;28;20028;-70
2021/07/31 04:48:54;;;;;;;6.18;2.25;;;15.10;99.90;;;;;;5076320;28;20041;-71
2021/07/31 04:51:20;;;;;;;5.85;2.30;;;15.10;99.90;;;;;;5079354;28;20097;-71
2021/07/31 04:53:46;;;;;;;4.32;1.77;;;15.10;99.90;;;;;;5078157;28;20040;-70
2021/07/31 04:56:12;;;;;;;7.22;2.08;;;15.10;99.90;;;;;;5080340;28;20458;-70
2021/07/31 04:58:38;;;;;;;9.77;2.28;;;15.20;99.90;;;;;;5081873;28;20054;-70
2021/07/31 05:01:03;;;;;;;4.80;2.35;;;15.10;99.90;;;;;;5061056;28;20122;-70
2021/07/31 05:03:29;;;;;;;5.03;2.28;;;15.20;99.90;;;;;;5076199;28;20070;-71
2021/07/31 05:05:56;;;;;;;4.07;1.55;;;15.10;99.90;;;;;;5059677;28;20041;-71
2021/07/31 05:08:22;;;;;;;4.82;1.98;;;15.20;99.90;;;;;;5080841;28;20524;-71
2021/07/31 05:10:50;;;;;;;4.75;1.45;;;15.20;99.90;;;;;;5061154;28;20039;-72
2021/07/31 05:13:16;;;;;;;3.72;2.00;;;15.10;99.90;;;;;;5079520;28;20046;-71
2021/07/31 05:15:43;;;;;;;5.20;1.60;;;15.10;99.90;;;;;;5079406;28;20131;-70
2021/07/31 05:18:09;;;;;;;8.60;2.00;;;15.10;99.90;;;;;;5074950;28;20799;-70
2021/07/31 05:20:46;;;;;;;6.18;1.85;;;15.10;99.90;;;;;;5080427;28;20040;-70
2021/07/31 05:23:13;;;;;;;4.40;1.50;;;15.10;99.90;;;;;;5088280;28;20485;-70
2021/07/31 05:25:41;;;;;;;4.07;1.55;;;15.10;99.90;;;;;;5071424;28;20016;-70
2021/07/31 05:28:07;;;;;;;5.10;1.88;;;15.10;99.90;;;;;;5070183;28;20028;-70
2021/07/31 05:30:33;;;;;;;4.47;1.77;;;15.10;99.90;;;;;;5088420;28;20495;-70
2021/07/31 05:32:58;;;;;;;3.65;1.48;;;15.10;99.90;;;;;;5087821;28;20047;-72
2021/07/31 05:35:24;;;;;;;4.28;1.38;;;15.20;99.90;;;;;;5088807;28;20036;-70
2021/07/31 05:37:50;;;;;;;7.47;1.50;;;15.20;99.90;;;;;;5091968;28;20032;-70
2021/07/31 05:40:17;;;;;;;4.07;1.83;;;15.20;99.90;;;;;;5082876;28;20024;-71
2021/07/31 05:42:42;;;;;;;5.22;1.48;;;15.20;99.90;;;;;;5092704;28;20040;-71
2021/07/31 05:45:08;;;;;;;6.00;1.45;;;15.20;99.90;;;;;;5092247;28;20024;-71
2021/07/31 05:47:34;;;;;;;4.05;1.20;;;15.20;99.90;;;;;;5092354;28;20043;-70
2021/07/31 05:50:03;;;;;;;2.83;1.38;;;15.20;99.90;;;;;;5092004;28;20024;-70
2021/07/31 05:52:29;;;;;;;6.57;1.57;;;15.30;99.90;;;;;;5092413;28;20028;-70
2021/07/31 05:54:58;;;;;;;5.68;1.63;;;15.30;99.90;;;;;;5092158;28;20358;-70
2021/07/31 05:57:24;;;;;;;4.00;1.77;;;15.30;99.90;;;;;;5091667;28;20024;-70
2021/07/31 05:59:50;;;;;;;5.50;1.95;;;15.40;99.90;;;;;;5092216;28;20461;-69
2021/07/31 06:02:16;;;;;;;6.03;1.45;;;15.40;99.90;;;;;;5091301;28;20506;-70
2021/07/31 06:04:42;;;;;;;9.85;1.85;;;15.50;99.90;;;;;;5092007;28;20051;-69
2021/07/31 06:07:10;;;;;;;7.93;1.80;;;15.50;99.90;;;;;;5090856;28;20060;-70
2021/07/31 06:09:37;;;;;;;7.40;1.33;;;15.60;99.90;;;;;;5073676;28;20496;-70
2021/07/31 06:12:03;;;;;;;5.78;1.30;;;15.60;99.90;;;;;;5091963;28;20044;-70
2021/07/31 06:14:32;;;;;;;8.70;1.67;;;15.60;99.90;;;;;;5091162;28;20070;-70
2021/07/31 06:16:58;;;;;;;4.47;1.20;;;15.60;99.90;;;;;;5073661;28;20024;-70
2021/07/31 06:19:23;;;;;;;3.95;1.48;;;15.60;99.90;;;;;;5091295;28;20089;-70
2021/07/31 06:21:49;;;;;;;3.42;1.55;;;15.60;99.90;;;;;;5079965;28;20025;-70
2021/07/31 06:24:14;;;;;;;6.50;1.50;;;15.60;99.90;;;;;;5071738;28;20040;-69
2021/07/31 06:26:40;;;;;;;2.35;1.00;;;15.60;99.90;;;;;;5079601;28;20089;-70
2021/07/31 06:29:06;;;;;;;5.35;1.27;;;15.60;99.90;;;;;;5059360;28;20438;-70
2021/07/31 06:31:31;;;;;;;4.45;1.35;;;15.70;99.90;;;;;;5091571;28;20052;-70
2021/07/31 06:33:57;;;;;;;5.80;1.60;;;15.70;99.90;;;;;;5082700;28;20032;-69
2021/07/31 06:36:23;;;;;;;6.03;1.40;;;15.70;99.90;;;;;;5062901;28;20115;-69
2021/07/31 06:38:49;;;;;;;6.30;1.33;;;15.70;99.90;;;;;;5050927;28;20104;-70
2021/07/31 06:41:14;;;;;;;5.63;1.45;;;15.70;99.90;;;;;;5078379;28;20113;-70
2021/07/31 06:43:40;;;;;;;4.85;1.27;;;15.70;99.90;;;;;;5073277;28;20492;-69
2021/07/31 06:46:13;;;;;;;4.15;0.85;;;15.80;99.90;;;;;;5074900;28;20066;-70
2021/07/31 06:48:38;;;;;;;9.02;0.90;;;15.90;99.90;;;;;;5076281;28;20107;-69
2021/07/31 06:51:04;;;;;;;2.50;1.00;;;15.90;99.90;;;;;;5060930;28;20044;-70
2021/07/31 06:53:30;;;;;;;6.70;1.17;;;16.00;99.90;;;;;;5079110;28;20036;-70
2021/07/31 06:55:59;;;;;;;5.75;1.30;;;16.00;99.90;;;;;;5071187;28;20569;-69
2021/07/31 06:58:25;;;;;;;2.40;0.80;;;16.00;99.90;;;;;;5075542;28;20044;-70
2021/07/31 07:00:51;;;;;;;2.38;1.10;;;16.00;99.90;;;;;;5054786;28;20378;-70
2021/07/31 07:03:16;;;;;;;2.65;1.10;;;16.10;99.90;;;;;;5079513;28;20036;-71
2021/07/31 07:05:42;;;;;;;9.30;1.42;;;16.00;99.90;;;;;;5077086;28;20032;-70
2021/07/31 07:08:08;;;;;;;4.95;0.93;;;16.00;99.90;;;;;;5060049;28;20044;-69
2021/07/31 07:10:33;;;;;;;6.78;1.40;;;16.00;99.90;;;;;;5086147;28;20035;-70
2021/07/31 07:12:59;;;;;;;5.15;1.33;;;16.10;99.90;;;;;;5053686;28;20478;-70
2021/07/31 07:15:27;;;;;;;2.25;1.10;;;16.10;99.90;;;;;;5071979;28;20037;-70
2021/07/31 07:17:53;;;;;;;7.05;1.15;;;16.40;99.90;;;;;;5067812;28;20028;-69
2021/07/31 07:20:19;;;;;;;4.75;1.23;;;16.60;99.90;;;;;;5087470;28;20032;-70
2021/07/31 07:22:45;;;;;;;2.90;0.80;;;16.70;99.90;;;;;;5052747;28;20025;-69
2021/07/31 07:25:11;;;;;;;3.88;0.80;;;16.80;99.90;;;;;;5039840;28;20036;-70
2021/07/31 07:27:36;;;;;;;4.95;1.13;;;16.70;99.90;;;;;;5072728;28;20051;-69
2021/07/31 07:30:02;;;;;;;4.05;1.05;;;16.80;99.90;;;;;;5077588;28;20061;-69
2021/07/31 07:32:28;;;;;;;2.65;0.95;;;16.80;99.90;;;;;;5056411;28;20029;-69
2021/07/31 07:34:54;;;;;;;8.27;1.27;;;16.80;99.90;;;;;;5077498;28;20043;-69
2021/07/31 07:37:19;;;;;;;3.78;1.00;;;16.80;99.90;;;;;;5082963;28;20468;-69
2021/07/31 07:39:45;;;;;;;4.55;1.55;;;16.70;99.90;;;;;;5077433;28;20029;-69
2021/07/31 07:42:10;;;;;;;6.65;1.38;;;16.70;99.90;;;;;;5079688;28;20025;-69
2021/07/31 07:44:36;;;;;;;5.78;0.75;;;16.70;99.90;;;;;;5074768;28;20048;-69
2021/07/31 07:47:02;;;;;;;2.00;0.40;;;16.90;99.90;;;;;;5050287;28;20040;-68
2021/07/31 07:49:28;;;;;;;3.78;1.27;;;17.10;99.90;;;;;;5089014;28;20025;-68
2021/07/31 07:51:53;;;;;;;3.53;0.50;;;17.10;99.90;;;;;;5070639;28;20035;-69
2021/07/31 07:54:19;;;;;;;5.30;0.95;;;17.20;99.90;;;;;;5090416;28;20035;-68
2021/07/31 07:56:44;;;;;;;2.50;1.00;;;17.30;99.90;;;;;;5077074;28;20089;-70
2021/07/31 07:59:10;;;;;;;5.93;0.70;;;17.30;99.90;;;;;;5070633;28;20472;-68
2021/07/31 08:01:36;;;;;;;2.47;0.85;;;17.30;99.90;;;;;;5082933;28;20073;-69
2021/07/31 08:04:03;;;;;;;1.33;0.65;;;17.30;99.90;;;;;;5078761;28;20032;-69
2021/07/31 08:06:28;;;;;;;3.90;1.20;;;17.30;99.90;;;;;;5071330;28;20111;-68
2021/07/31 08:08:54;;;;;;;3.05;1.02;;;17.20;99.90;;;;;;5063804;28;20124;-69
2021/07/31 08:11:19;;;;;;;2.40;0.90;;;17.10;99.90;;;;;;5076319;28;20036;-68
2021/07/31 08:13:45;;;;;;;3.97;1.23;;;16.90;99.90;;;;;;5072034;28;20036;-68
2021/07/31 08:16:11;;;;;;;3.97;1.00;;;16.90;99.90;;;;;;5074086;28;20032;-68
2021/07/31 08:18:36;;;;;;;2.80;0.85;;;16.70;99.90;;;;;;5072503;28;20028;-69
2021/07/31 08:21:02;;;;;;;2.65;1.00;;;16.60;99.90;;;;;;5075300;28;20091;-69
2021/07/31 08:23:28;;;;;;;6.05;1.45;;;16.60;99.90;;;;;;5079208;28;20036;-69
2021/07/31 08:25:54;;;;;;;12.57;1.20;;;16.60;99.90;;;;;;5075230;28;20032;-71
2021/07/31 08:28:20;;;;;;;3.28;1.23;;;16.80;99.90;;;;;;5073583;28;20028;-69
2021/07/31 08:30:45;;;;;;;5.70;0.90;;;17.00;99.90;;;;;;5077325;28;20029;-71
2021/07/31 08:33:11;;;;;;;2.30;1.00;;;17.30;99.90;;;;;;5080953;28;20515;-70
2021/07/31 08:35:36;;;;;;;2.10;0.73;;;17.50;99.90;;;;;;5082179;28;20024;-70
2021/07/31 08:38:02;;;;;;;5.22;0.80;;;17.70;99.90;;;;;;5084777;28;20105;-70
2021/07/31 08:40:28;;;;;;;2.92;1.00;;;17.80;99.90;;;;;;5056719;28;20029;-71
2021/07/31 08:42:54;;;;;;;1.75;0.93;;;17.90;99.90;;;;;;5079827;28;20086;-70
2021/07/31 08:45:20;;;;;;;3.40;1.00;;;18.10;99.90;;;;;;5083701;28;20036;-69
2021/07/31 08:47:49;;;;;;;2.75;1.10;;;18.30;99.90;;;;;;5076481;28;20082;-70
2021/07/31 08:50:16;;;;;;;2.85;0.63;;;18.40;99.90;;;;;;5061903;28;20044;-70
2021/07/31 08:52:50;;;;;;;6.70;1.10;;;18.60;99.90;;;;;;5080137;28;20032;-70
2021/07/31 08:55:15;;;;;;;2.15;1.17;;;18.50;99.90;;;;;;5054496;28;20427;-69
2021/07/31 08:57:41;;;;;;;2.88;1.08;;;18.40;99.90;;;;;;5076725;28;20031;-70
2021/07/31 09:00:08;;;;;;;4.03;0.90;;;18.20;99.90;;;;;;5076440;28;20028;-70
2021/07/31 09:02:45;;;;;;;1.75;0.98;;;18.20;99.90;;;;;;5081264;28;20036;-70
2021/07/31 09:05:12;;;;;;;6.13;1.88;;;18.00;99.90;;;;;;5075981;28;20032;-70
2021/07/31 09:07:39;;;;;;;4.20;1.23;;;17.90;99.90;;;;;;5079829;28;20039;-70
2021/07/31 09:10:24;;;;;;;1.85;0.80;;;17.60;99.90;;;;;;5071625;28;20032;-71
2021/07/31 09:13:00;;;;;;;3.78;0.80;;;17.30;99.90;;;;;;5074370;28;20041;-71
2021/07/31 09:15:36;;;;;;;3.42;0.88;;;17.20;99.90;;;;;;5082272;28;20380;-72
2021/07/31 09:18:22;;;;;;;4.53;1.77;;;17.40;99.90;;;;;;5080852;28;20035;-71
2021/07/31 09:21:12;;;;;;;4.85;0.85;;;18.00;99.90;;;;;;5069874;28;20508;-71
2021/07/31 09:23:47;;;;;;;;;;;18.30;99.90;;;;;;5076155;28;20047;-71
2021/07/31 09:26:13;;;;;;;6.38;0.98;;;18.40;99.90;;;;;;5070833;28;19987;-71
2021/07/31 09:28:42;;;;;;;5.78;1.27;;;18.30;99.90;;;;;;5066951;28;20038;-71
2021/07/31 09:31:20;;;;;;;4.72;0.60;;;18.10;99.90;;;;;;5072534;28;20082;-71
2021/07/31 09:33:48;;;;;;;4.07;0.60;;;17.90;99.90;;;;;;5089430;28;20067;-71
2021/07/31 09:36:14;;;;;;;3.55;0.50;;;17.80;99.90;;;;;;5088565;28;20032;-72
2021/07/31 09:38:49;;;;;;;5.28;0.70;;;17.90;99.90;;;;;;5057999;28;20079;-71
2021/07/31 09:41:51;;;;;;;3.53;0.80;;;18.10;99.90;;;;;;5055485;28;20530;-70
2021/07/31 09:44:17;;;;;;;7.50;1.88;;;18.40;99.90;;;;;;5074417;28;20044;-71
2021/07/31 09:46:51;;;;;;;2.35;0.50;;;18.70;99.90;;;;;;5071384;28;20033;-71
2021/07/31 09:49:22;;;;;;;3.65;0.43;;;19.00;99.90;;;;;;5070905;28;20082;-71
2021/07/31 09:51:52;;;;;;;3.67;0.50;;;19.30;99.90;;;;;;5072339;28;20073;-71
2021/07/31 09:54:18;;;;;;;;;;;19.60;99.90;;;;;;5060660;28;20107;-66
2021/07/31 09:56:49;;;;;;;1.33;0.50;;;19.90;99.90;;;;;;5079090;28;19943;-71
2021/07/31 09:59:17;;;;;;;3.80;0.63;;;20.20;99.90;;;;;;5084651;28;20178;-71
2021/07/31 10:01:50;;;;;;;0.85;0.52;;;20.10;99.90;;;;;;5082957;28;20040;-71
2021/07/31 10:04:17;;;;;;;2.58;0.40;;;20.10;99.90;;;;;;5078883;28;20427;-71
2021/07/31 10:06:43;;;;;;;2.20;0.20;;;19.90;99.90;;;;;;5064137;28;20385;-71
2021/07/31 10:09:10;;;;;;;1.33;0.20;;;19.80;99.90;;;;;;5071895;28;20502;-71
2021/07/31 10:11:37;;;;;;;1.77;0.25;;;19.70;99.90;;;;;;5074629;28;20120;-70
2021/07/31 10:14:05;;;;;;;0.95;0.10;;;19.60;99.90;;;;;;5072658;28;20396;-71
2021/07/31 10:16:32;;;;;;;1.00;0.50;;;19.60;99.90;;;;;;5056838;28;20055;-70
2021/07/31 10:18:59;;;;;;;0.77;0.50;;;19.70;99.90;;;;;;5071716;28;20519;-70
2021/07/31 10:21:26;;;;;;;4.03;0.60;;;19.90;99.90;;;;;;5077531;28;20531;-71
2021/07/31 10:24:02;;;;;;;4.07;0.38;;;20.00;99.90;;;;;;5075775;28;20102;-71
2021/07/31 10:26:29;;;;;;;0.73;0.10;;;20.20;99.90;;;;;;5068849;28;20029;-71
2021/07/31 10:29:27;;;;;;;0.50;0.10;;;20.20;99.90;;;;;;5082995;28;20035;-71
2021/07/31 10:31:56;;;;;;;0.60;0.20;;;20.20;99.90;;;;;;5065226;28;20032;-71
2021/07/31 10:34:57;;;;;;;3.13;0.40;;;20.00;99.90;;;;;;5082025;28;20097;-71
2021/07/31 10:37:31;;;;;;;0.52;0.32;;;19.90;99.90;;;;;;5049301;28;20032;-71
2021/07/31 10:39:57;;;;;;;2.75;0.73;;;19.60;99.90;;;;;;5082415;28;20042;-71
2021/07/31 10:42:23;;;;;;;2.55;0.40;;;19.30;99.90;;;;;;5086137;28;20492;-71
2021/07/31 10:45:10;;;;;;;1.48;0.30;;;19.40;99.90;;;;;;5077518;28;20055;-71
2021/07/31 10:47:35;;;;;;;2.63;0.45;;;19.60;99.90;;;;;;5074117;28;20032;-71
2021/07/31 10:50:24;;;;;;;1.70;0.50;;;19.70;99.90;;;;;;5085539;28;20059;-71
2021/07/31 10:53:06;;;;;;;1.92;0.40;;;19.80;99.90;;;;;;5070948;28;20551;-71
2021/07/31 10:55:37;;;;;;;3.00;0.77;;;19.60;99.90;;;;;;5078927;28;20082;-71
2021/07/31 10:58:03;;;;;;;5.13;0.60;;;19.50;99.90;;;;;;5076187;28;20048;-70
2021/07/31 11:00:37;;;;;;;0.88;0.43;;;19.40;99.90;;;;;;5082793;28;20560;-71
2021/07/31 11:03:29;;;;;;;3.13;0.60;;;19.20;99.90;;;;;;5077077;28;20024;-71
2021/07/31 11:05:54;;;;;;;2.70;0.68;;;19.20;99.90;;;;;;5064075;28;20119;-71
2021/07/31 11:08:26;;;;;;;4.07;1.10;;;18.90;99.90;;;;;;5089112;28;20119;-70
2021/07/31 11:10:54;;;;;;;6.05;1.00;;;18.70;99.90;;;;;;5072036;28;20032;-72
2021/07/31 11:13:20;;;;;;;5.78;1.23;;;18.40;99.90;;;;;;5080296;28;20075;-71
2021/07/31 11:16:04;;;;;;;4.13;1.02;;;18.20;99.90;;;;;;5088204;28;20032;-71
2021/07/31 11:18:35;;;;;;;3.40;1.15;;;18.00;99.90;;;;;;5082067;28;20059;-71
2021/07/31 11:21:12;;;;;;;3.60;1.25;;;18.00;99.90;;;;;;5051895;28;20036;-71
2021/07/31 11:23:44;;;;;;;4.22;1.30;;;18.00;99.90;;;;;;5080004;28;20039;-71
2021/07/31 11:26:10;;;;;;;2.92;1.60;;;18.20;99.90;;;;;;5083495;28;20081;-72
2021/07/31 11:28:38;;;;;;;6.35;1.67;;;18.40;99.90;;;;;;5068897;28;20020;-72
2021/07/31 11:31:30;;;;;;;4.38;1.73;;;18.70;99.90;;;;;;5057508;28;20024;-71
2021/07/31 11:34:01;;;;;;;6.88;1.42;;;19.20;99.90;;;;;;5061569;28;20188;-71
2021/07/31 11:36:28;;;;;;;4.25;2.17;;;19.50;99.90;;;;;;5058943;28;20059;-71
2021/07/31 11:38:54;;;;;;;4.88;1.50;;;19.70;99.90;;;;;;5050306;28;20029;-71
2021/07/31 11:41:20;;;;;;;6.85;1.95;;;19.80;99.90;;;;;;5052634;28;20130;-72
2021/07/31 11:43:52;;;;;;;6.20;1.08;;;20.00;99.90;;;;;;5078356;28;20067;-72
2021/07/31 11:46:48;;;;;;;6.43;1.70;;;19.90;99.90;;;;;;5076790;28;20024;-71
2021/07/31 11:49:31;;;;;;;4.15;1.50;;;19.90;99.90;;;;;;5066888;28;20035;-71
2021/07/31 11:52:01;;;;;;;6.30;1.45;;;19.80;99.90;;;;;;5072975;28;20070;-72
2021/07/31 11:54:28;;;;;;;6.32;1.40;;;19.80;99.90;;;;;;5050760;28;20059;-71
2021/07/31 11:56:55;;;;;;;1.90;1.05;;;19.90;99.90;;;;;;5071729;28;20033;-72
2021/07/31 11:59:25;;;;;;;7.28;1.60;;;19.90;99.90;;;;;;5061210;28;20040;-71
2021/07/31 12:01:55;;;;;;;3.88;1.30;;;19.70;99.90;;;;;;5080937;28;20660;-72
2021/07/31 12:04:39;;;;;;;;;;;19.80;99.90;;;;;;5080550;28;20047;-71
2021/07/31 12:07:17;;;;;;;6.28;1.10;;;19.80;99.90;;;;;;5070615;28;19912;-72
2021/07/31 12:09:56;;;;;;;2.22;0.88;;;20.00;99.90;;;;;;5057491;28;20028;-70
2021/07/31 12:12:23;;;;;;;3.58;1.00;;;20.00;99.90;;;;;;5074236;28;20052;-69
2021/07/31 12:15:07;;;;;;;3.35;0.77;;;20.20;99.90;;;;;;5061509;28;20052;-69
2021/07/31 12:17:33;;;;;;;2.20;0.80;;;20.30;99.90;;;;;;5054891;28;20036;-71
2021/07/31 12:19:59;;;;;;;2.17;0.65;;;20.40;99.90;;;;;;5076320;28;20076;-71
2021/07/31 12:22:34;;;;;;;2.30;0.80;;;20.40;99.90;;;;;;5078175;28;20056;-71
2021/07/31 12:25:17;;;;;;;3.30;0.85;;;20.30;99.90;;;;;;5057514;28;20056;-72
2021/07/31 12:28:06;;;;;;;5.55;0.82;;;20.10;99.90;;;;;;5070588;28;20031;-72
2021/07/31 12:30:34;;;;;;;3.28;1.42;;;20.30;99.90;;;;;;5055986;28;20123;-71
2021/07/31 12:33:18;;;;;;;1.60;0.70;;;20.60;99.90;;;;;;5076374;28;20029;-72
2021/07/31 12:35:44;;;;;;;1.92;0.63;;;20.80;99.90;;;;;;5062928;28;20476;-71
2021/07/31 12:38:24;;;;;;;5.15;0.80;;;20.90;99.90;;;;;;5075340;28;20036;-71
2021/07/31 12:40:58;;;;;;;2.17;0.80;;;21.00;99.90;;;;;;5077019;28;20035;-71
2021/07/31 12:43:25;;;;;;;2.20;0.82;;;21.10;99.90;;;;;;5074408;28;20056;-72
2021/07/31 12:45:52;;;;;;;4.50;1.00;;;21.00;99.90;;;;;;5076444;28;20036;-72
2021/07/31 12:48:19;;;;;;;2.05;0.98;;;20.80;99.90;;;;;;5065583;28;20040;-71
2021/07/31 12:50:44;;;;;;;1.67;0.68;;;20.50;99.90;;;;;;5087577;28;20103;-71